sensor_id;sensor_type;location;lat;lon;timestamp;temperature;humidity
35240;DHT22;21376;50.954;4.716;2023-12-07T00:00:42;3.00;99.90
35240;DHT22;21376;50.954;4.716;2023-12-07T00:03:43;3.00;99.90
35240;DHT22;21376;50.954;4.716;2023-12-07T00:06:26;3.10;99.90
35240;DHT22;21376;50.954;4.716;2023-12-07T00:08:55;2.90;99.90
35240;DHT22;21376;50.954;4.716;2023-12-07T00:11:27;3.00;99.90
35240;DHT22;21376;50.954;4.716;2023-12-07T00:13:55;3.10;99.90
35240;DHT22;21376;50.954;4.716;2023-12-07T00:16:24;2.90;99.90
35240;DHT22;21376;50.954;4.716;2023-12-07T00:18:53;3.00;99.90
35240;DHT22;21376;50.954;4.716;2023-12-07T00:21:18;3.10;99.90
35240;DHT22;21376;50.954;4.716;2023-12-07T00:23:45;3.10;99.90
35240;DHT22;21376;50.954;4.716;2023-12-07T00:26:14;3.00;99.90
35240;DHT22;21376;50.954;4.716;2023-12-07T00:28:42;3.10;99.90
35240;DHT22;21376;50.954;4.716;2023-12-07T00:31:16;3.10;99.90
35240;DHT22;21376;50.954;4.716;2023-12-07T00:33:43;3.10;99.90
35240;DHT22;21376;50.954;4.716;2023-12-07T00:36:14;3.10;99.90
35240;DHT22;21376;50.954;4.716;2023-12-07T00:38:43;3.00;99.90
35240;DHT22;21376;50.954;4.716;2023-12-07T00:41:15;3.10;99.90
35240;DHT22;21376;50.954;4.716;2023-12-07T00:43:41;3.10;99.90
35240;DHT22;21376;50.954;4.716;2023-12-07T00:46:08;3.10;99.90
35240;DHT22;21376;50.954;4.716;2023-12-07T00:48:45;3.10;99.90
35240;DHT22;21376;50.954;4.716;2023-12-07T00:51:23;3.20;99.90
35240;DHT22;21376;50.954;4.716;2023-12-07T00:53:52;3.30;99.90
35240;DHT22;21376;50.954;4.716;2023-12-07T00:56:21;3.10;99.90
35240;DHT22;21376;50.954;4.716;2023-12-07T00:58:50;3.00;99.90
35240;DHT22;21376;50.954;4.716;2023-12-07T01:01:18;3.20;99.90
35240;DHT22;21376;50.954;4.716;2023-12-07T01:03:53;3.20;99.90
35240;DHT22;21376;50.954;4.716;2023-12-07T01:06:21;3.00;99.90
35240;DHT22;21376;50.954;4.716;2023-12-07T01:08:49;3.20;99.90
35240;DHT22;21376;50.954;4.716;2023-12-07T01:11:26;3.10;99.90
35240;DHT22;21376;50.954;4.716;2023-12-07T01:13:53;3.10;99.90
35240;DHT22;21376;50.954;4.716;2023-12-07T01:16:45;2.90;99.90
35240;DHT22;21376;50.954;4.716;2023-12-07T01:19:13;2.80;99.90
35240;DHT22;21376;50.954;4.716;2023-12-07T01:21:50;2.70;99.90
35240;DHT22;21376;50.954;4.716;2023-12-07T01:24:22;2.80;99.90
35240;DHT22;21376;50.954;4.716;2023-12-07T01:26:55;2.80;99.90
35240;DHT22;21376;50.954;4.716;2023-12-07T01:29:33;2.90;99.90
35240;DHT22;21376;50.954;4.716;2023-12-07T01:32:02;2.80;99.90
35240;DHT22;21376;50.954;4.716;2023-12-07T01:34:30;2.60;99.90
35240;DHT22;21376;50.954;4.716;2023-12-07T01:36:56;2.60;99.90
35240;DHT22;21376;50.954;4.716;2023-12-07T01:39:25;2.60;99.90
35240;DHT22;21376;50.954;4.716;2023-12-07T01:41:54;2.70;99.90
35240;DHT22;21376;50.954;4.716;2023-12-07T01:44:21;2.60;99.90
35240;DHT22;21376;50.954;4.716;2023-12-07T01:46:50;2.50;99.90
35240;DHT22;21376;50.954;4.716;2023-12-07T01:49:16;2.40;99.90
35240;DHT22;21376;50.954;4.716;2023-12-07T01:51:46;2.40;99.90
35240;DHT22;21376;50.954;4.716;2023-12-07T01:54:12;2.50;99.90
35240;DHT22;21376;50.954;4.716;2023-12-07T01:56:41;2.60;99.90
35240;DHT22;21376;50.954;4.716;2023-12-07T01:59:26;2.60;99.90
35240;DHT22;21376;50.954;4.716;2023-12-07T02:01:55;2.50;99.90
35240;DHT22;21376;50.954;4.716;2023-12-07T02:04:24;2.50;99.90
35240;DHT22;21376;50.954;4.716;2023-12-07T02:06:57;2.40;99.90
35240;DHT22;21376;50.954;4.716;2023-12-07T02:09:28;2.60;99.90
35240;DHT22;21376;50.954;4.716;2023-12-07T02:11:56;2.80;99.90
35240;DHT22;21376;50.954;4.716;2023-12-07T02:14:25;2.90;99.90
35240;DHT22;21376;50.954;4.716;2023-12-07T02:17:01;2.80;99.90
35240;DHT22;21376;50.954;4.716;2023-12-07T02:20:05;2.60;99.90
35240;DHT22;21376;50.954;4.716;2023-12-07T02:22:40;2.80;99.90
35240;DHT22;21376;50.954;4.716;2023-12-07T02:25:11;2.80;99.90
35240;DHT22;21376;50.954;4.716;2023-12-07T02:30:04;2.90;99.90
35240;DHT22;21376;50.954;4.716;2023-12-07T02:32:45;2.80;99.90
35240;DHT22;21376;50.954;4.716;2023-12-07T02:35:14;2.90;99.90
35240;DHT22;21376;50.954;4.716;2023-12-07T02:37:50;3.00;99.90
35240;DHT22;21376;50.954;4.716;2023-12-07T02:40:21;3.00;99.90
35240;DHT22;21376;50.954;4.716;2023-12-07T02:42:48;3.00;99.90
35240;DHT22;21376;50.954;4.716;2023-12-07T02:45:31;3.00;99.90
35240;DHT22;21376;50.954;4.716;2023-12-07T02:48:00;3.10;99.90
35240;DHT22;21376;50.954;4.716;2023-12-07T02:50:27;3.00;99.90
35240;DHT22;21376;50.954;4.716;2023-12-07T02:52:54;2.80;99.90
35240;DHT22;21376;50.954;4.716;2023-12-07T02:55:24;2.80;99.90
35240;DHT22;21376;50.954;4.716;2023-12-07T02:57:53;2.90;99.90
35240;DHT22;21376;50.954;4.716;2023-12-07T03:00:22;3.00;99.90
35240;DHT22;21376;50.954;4.716;2023-12-07T03:02:48;3.00;99.90
35240;DHT22;21376;50.954;4.716;2023-12-07T03:05:16;3.00;99.90
35240;DHT22;21376;50.954;4.716;2023-12-07T03:07:53;2.90;99.90
35240;DHT22;21376;50.954;4.716;2023-12-07T03:10:25;2.90;99.90
35240;DHT22;21376;50.954;4.716;2023-12-07T03:13:03;2.90;99.90
35240;DHT22;21376;50.954;4.716;2023-12-07T03:15:36;3.00;99.90
35240;DHT22;21376;50.954;4.716;2023-12-07T03:18:04;2.80;99.90
35240;DHT22;21376;50.954;4.716;2023-12-07T03:20:51;2.80;99.90
35240;DHT22;21376;50.954;4.716;2023-12-07T03:23:27;2.80;99.90
35240;DHT22;21376;50.954;4.716;2023-12-07T03:26:05;2.80;99.90
35240;DHT22;21376;50.954;4.716;2023-12-07T03:28:40;2.80;99.90
35240;DHT22;21376;50.954;4.716;2023-12-07T03:31:18;2.90;99.90
35240;DHT22;21376;50.954;4.716;2023-12-07T03:33:47;3.00;99.90
35240;DHT22;21376;50.954;4.716;2023-12-07T03:36:15;3.00;99.90
35240;DHT22;21376;50.954;4.716;2023-12-07T03:38:45;3.20;99.90
35240;DHT22;21376;50.954;4.716;2023-12-07T03:41:45;3.10;99.90
35240;DHT22;21376;50.954;4.716;2023-12-07T03:44:14;3.20;99.90
35240;DHT22;21376;50.954;4.716;2023-12-07T03:46:41;3.10;99.90
35240;DHT22;21376;50.954;4.716;2023-12-07T03:49:08;3.10;99.90
35240;DHT22;21376;50.954;4.716;2023-12-07T03:51:38;2.90;99.90
35240;DHT22;21376;50.954;4.716;2023-12-07T03:54:10;2.80;99.90
35240;DHT22;21376;50.954;4.716;2023-12-07T03:59:54;2.70;99.90
35240;DHT22;21376;50.954;4.716;2023-12-07T04:02:20;2.80;99.90
35240;DHT22;21376;50.954;4.716;2023-12-07T04:04:49;2.90;99.90
35240;DHT22;21376;50.954;4.716;2023-12-07T04:07:19;2.90;99.90
35240;DHT22;21376;50.954;4.716;2023-12-07T04:10:20;2.90;99.90
35240;DHT22;21376;50.954;4.716;2023-12-07T04:12:59;2.80;99.90
35240;DHT22;21376;50.954;4.716;2023-12-07T04:15:35;2.90;99.90
35240;DHT22;21376;50.954;4.716;2023-12-07T04:18:05;2.80;99.90
35240;DHT22;21376;50.954;4.716;2023-12-07T04:20:34;2.80;99.90
35240;DHT22;21376;50.954;4.716;2023-12-07T04:23:00;2.80;99.90
35240;DHT22;21376;50.954;4.716;2023-12-07T04:25:26;3.00;99.90
35240;DHT22;21376;50.954;4.716;2023-12-07T04:27:54;2.90;99.90
35240;DHT22;21376;50.954;4.716;2023-12-07T04:30:24;2.90;99.90
35240;DHT22;21376;50.954;4.716;2023-12-07T04:32:50;3.00;99.90
35240;DHT22;21376;50.954;4.716;2023-12-07T04:35:16;3.00;99.90
35240;DHT22;21376;50.954;4.716;2023-12-07T04:37:42;3.00;99.90
35240;DHT22;21376;50.954;4.716;2023-12-07T04:40:08;3.00;99.90
35240;DHT22;21376;50.954;4.716;2023-12-07T04:42:38;3.00;99.90
35240;DHT22;21376;50.954;4.716;2023-12-07T04:45:05;2.90;99.90
35240;DHT22;21376;50.954;4.716;2023-12-07T04:47:32;2.90;99.90
35240;DHT22;21376;50.954;4.716;2023-12-07T04:50:02;2.90;99.90
35240;DHT22;21376;50.954;4.716;2023-12-07T04:52:30;2.90;99.90
35240;DHT22;21376;50.954;4.716;2023-12-07T04:54:59;2.90;99.90
35240;DHT22;21376;50.954;4.716;2023-12-07T04:57:26;3.00;99.90
35240;DHT22;21376;50.954;4.716;2023-12-07T05:00:11;3.00;99.90
35240;DHT22;21376;50.954;4.716;2023-12-07T05:02:39;3.00;99.90
35240;DHT22;21376;50.954;4.716;2023-12-07T05:05:12;2.90;99.90
35240;DHT22;21376;50.954;4.716;2023-12-07T05:07:42;3.10;99.90
35240;DHT22;21376;50.954;4.716;2023-12-07T05:10:22;3.00;99.90
35240;DHT22;21376;50.954;4.716;2023-12-07T05:13:03;2.90;99.90
35240;DHT22;21376;50.954;4.716;2023-12-07T05:15:31;2.90;99.90
35240;DHT22;21376;50.954;4.716;2023-12-07T05:17:59;2.90;99.90
35240;DHT22;21376;50.954;4.716;2023-12-07T05:20:26;3.00;99.90
35240;DHT22;21376;50.954;4.716;2023-12-07T05:22:57;2.80;99.90
35240;DHT22;21376;50.954;4.716;2023-12-07T05:25:22;2.80;99.90
35240;DHT22;21376;50.954;4.716;2023-12-07T05:27:49;2.90;99.90
35240;DHT22;21376;50.954;4.716;2023-12-07T05:30:19;2.70;99.90
35240;DHT22;21376;50.954;4.716;2023-12-07T05:32:46;3.00;99.90
35240;DHT22;21376;50.954;4.716;2023-12-07T05:35:28;3.00;99.90
35240;DHT22;21376;50.954;4.716;2023-12-07T05:38:06;3.00;99.90
35240;DHT22;21376;50.954;4.716;2023-12-07T05:40:35;2.90;99.90
35240;DHT22;21376;50.954;4.716;2023-12-07T05:43:20;3.00;99.90
35240;DHT22;21376;50.954;4.716;2023-12-07T05:45:49;3.10;99.90
35240;DHT22;21376;50.954;4.716;2023-12-07T05:48:15;2.90;99.90
35240;DHT22;21376;50.954;4.716;2023-12-07T05:53:59;3.00;99.90
35240;DHT22;21376;50.954;4.716;2023-12-07T05:56:34;2.90;99.90
35240;DHT22;21376;50.954;4.716;2023-12-07T05:59:09;2.90;99.90
35240;DHT22;21376;50.954;4.716;2023-12-07T06:01:38;2.90;99.90
35240;DHT22;21376;50.954;4.716;2023-12-07T06:04:09;3.00;99.90
35240;DHT22;21376;50.954;4.716;2023-12-07T06:06:40;3.00;99.90
35240;DHT22;21376;50.954;4.716;2023-12-07T06:09:29;3.10;99.90
35240;DHT22;21376;50.954;4.716;2023-12-07T06:11:56;2.90;99.90
35240;DHT22;21376;50.954;4.716;2023-12-07T06:14:25;2.90;99.90
35240;DHT22;21376;50.954;4.716;2023-12-07T06:16:55;3.00;99.90
35240;DHT22;21376;50.954;4.716;2023-12-07T06:19:24;3.30;99.90
35240;DHT22;21376;50.954;4.716;2023-12-07T06:21:59;3.40;99.90
35240;DHT22;21376;50.954;4.716;2023-12-07T06:24:28;3.40;99.90
35240;DHT22;21376;50.954;4.716;2023-12-07T06:27:27;3.50;99.90
35240;DHT22;21376;50.954;4.716;2023-12-07T06:29:56;3.70;99.90
35240;DHT22;21376;50.954;4.716;2023-12-07T06:32:29;3.70;99.90
35240;DHT22;21376;50.954;4.716;2023-12-07T06:34:58;3.50;99.90
35240;DHT22;21376;50.954;4.716;2023-12-07T06:37:42;3.50;99.90
35240;DHT22;21376;50.954;4.716;2023-12-07T06:42:52;3.60;99.90
35240;DHT22;21376;50.954;4.716;2023-12-07T06:45:21;3.60;99.90
35240;DHT22;21376;50.954;4.716;2023-12-07T06:47:50;3.70;99.90
35240;DHT22;21376;50.954;4.716;2023-12-07T06:50:19;3.60;99.90
35240;DHT22;21376;50.954;4.716;2023-12-07T06:52:49;3.50;99.90
35240;DHT22;21376;50.954;4.716;2023-12-07T06:55:21;3.40;99.90
35240;DHT22;21376;50.954;4.716;2023-12-07T06:57:51;3.40;99.90
35240;DHT22;21376;50.954;4.716;2023-12-07T07:00:17;3.30;99.90
35240;DHT22;21376;50.954;4.716;2023-12-07T07:02:55;3.30;99.90
35240;DHT22;21376;50.954;4.716;2023-12-07T07:05:21;3.40;99.90
35240;DHT22;21376;50.954;4.716;2023-12-07T07:07:50;3.20;99.90
35240;DHT22;21376;50.954;4.716;2023-12-07T07:10:20;3.20;99.90
35240;DHT22;21376;50.954;4.716;2023-12-07T07:12:54;3.20;99.90
35240;DHT22;21376;50.954;4.716;2023-12-07T07:15:26;3.30;99.90
35240;DHT22;21376;50.954;4.716;2023-12-07T07:17:55;3.00;99.90
35240;DHT22;21376;50.954;4.716;2023-12-07T07:20:25;2.80;99.90
35240;DHT22;21376;50.954;4.716;2023-12-07T07:22:54;2.70;99.90
35240;DHT22;21376;50.954;4.716;2023-12-07T07:25:20;2.80;99.90
35240;DHT22;21376;50.954;4.716;2023-12-07T07:27:50;2.90;99.90
35240;DHT22;21376;50.954;4.716;2023-12-07T07:30:21;2.80;99.90
35240;DHT22;21376;50.954;4.716;2023-12-07T07:32:52;2.60;99.90
35240;DHT22;21376;50.954;4.716;2023-12-07T07:35:28;2.60;99.90
35240;DHT22;21376;50.954;4.716;2023-12-07T07:37:55;2.50;99.90
35240;DHT22;21376;50.954;4.716;2023-12-07T07:40:28;2.60;99.90
35240;DHT22;21376;50.954;4.716;2023-12-07T07:42:57;2.70;99.90
35240;DHT22;21376;50.954;4.716;2023-12-07T07:45:26;2.70;99.90
35240;DHT22;21376;50.954;4.716;2023-12-07T07:47:51;2.80;99.90
35240;DHT22;21376;50.954;4.716;2023-12-07T07:50:35;2.90;99.90
35240;DHT22;21376;50.954;4.716;2023-12-07T07:53:14;3.10;99.90
35240;DHT22;21376;50.954;4.716;2023-12-07T07:55:43;3.30;99.90
35240;DHT22;21376;50.954;4.716;2023-12-07T07:58:12;3.10;99.90
35240;DHT22;21376;50.954;4.716;2023-12-07T08:00:37;3.00;99.90
35240;DHT22;21376;50.954;4.716;2023-12-07T08:03:06;2.90;99.90
35240;DHT22;21376;50.954;4.716;2023-12-07T08:05:35;3.00;99.90
35240;DHT22;21376;50.954;4.716;2023-12-07T08:11:14;3.00;99.90
35240;DHT22;21376;50.954;4.716;2023-12-07T08:13:46;3.10;99.90
35240;DHT22;21376;50.954;4.716;2023-12-07T08:16:13;2.90;99.90
35240;DHT22;21376;50.954;4.716;2023-12-07T08:18:42;3.00;99.90
35240;DHT22;21376;50.954;4.716;2023-12-07T08:21:08;2.80;99.90
35240;DHT22;21376;50.954;4.716;2023-12-07T08:23:36;2.90;99.90
35240;DHT22;21376;50.954;4.716;2023-12-07T08:26:05;2.80;99.90
35240;DHT22;21376;50.954;4.716;2023-12-07T08:28:31;2.90;99.90
35240;DHT22;21376;50.954;4.716;2023-12-07T08:31:01;2.90;99.90
35240;DHT22;21376;50.954;4.716;2023-12-07T08:33:30;3.00;99.90
35240;DHT22;21376;50.954;4.716;2023-12-07T08:35:57;3.20;99.90
35240;DHT22;21376;50.954;4.716;2023-12-07T08:38:25;3.30;99.90
35240;DHT22;21376;50.954;4.716;2023-12-07T08:40:51;3.50;99.90
35240;DHT22;21376;50.954;4.716;2023-12-07T08:43:29;3.60;99.90
35240;DHT22;21376;50.954;4.716;2023-12-07T08:45:56;3.70;99.90
35240;DHT22;21376;50.954;4.716;2023-12-07T08:48:23;3.70;99.90
35240;DHT22;21376;50.954;4.716;2023-12-07T08:50:48;3.70;99.90
35240;DHT22;21376;50.954;4.716;2023-12-07T08:53:14;3.70;99.90
35240;DHT22;21376;50.954;4.716;2023-12-07T08:55:40;3.70;99.90
35240;DHT22;21376;50.954;4.716;2023-12-07T08:58:09;3.70;99.90
35240;DHT22;21376;50.954;4.716;2023-12-07T09:00:37;3.70;99.90
35240;DHT22;21376;50.954;4.716;2023-12-07T09:03:04;3.60;99.90
35240;DHT22;21376;50.954;4.716;2023-12-07T09:05:32;3.90;99.90
35240;DHT22;21376;50.954;4.716;2023-12-07T09:08:00;4.50;99.90
35240;DHT22;21376;50.954;4.716;2023-12-07T09:10:25;5.70;99.90
35240;DHT22;21376;50.954;4.716;2023-12-07T09:12:52;7.10;99.90
35240;DHT22;21376;50.954;4.716;2023-12-07T09:15:19;7.70;99.90
35240;DHT22;21376;50.954;4.716;2023-12-07T09:17:50;7.80;99.90
35240;DHT22;21376;50.954;4.716;2023-12-07T09:20:15;7.10;99.90
35240;DHT22;21376;50.954;4.716;2023-12-07T09:22:45;6.80;99.90
35240;DHT22;21376;50.954;4.716;2023-12-07T09:25:16;6.20;99.90
35240;DHT22;21376;50.954;4.716;2023-12-07T09:27:46;6.10;99.90
35240;DHT22;21376;50.954;4.716;2023-12-07T09:30:19;5.70;99.90
35240;DHT22;21376;50.954;4.716;2023-12-07T09:32:55;5.50;99.90
35240;DHT22;21376;50.954;4.716;2023-12-07T09:35:23;5.20;99.90
35240;DHT22;21376;50.954;4.716;2023-12-07T09:37:49;5.30;99.90
35240;DHT22;21376;50.954;4.716;2023-12-07T09:40:20;5.20;99.90
35240;DHT22;21376;50.954;4.716;2023-12-07T09:42:47;5.10;99.90
35240;DHT22;21376;50.954;4.716;2023-12-07T09:45:15;5.30;99.90
35240;DHT22;21376;50.954;4.716;2023-12-07T09:47:52;5.60;99.90
35240;DHT22;21376;50.954;4.716;2023-12-07T09:50:23;5.70;99.90
35240;DHT22;21376;50.954;4.716;2023-12-07T09:53:08;6.30;99.90
35240;DHT22;21376;50.954;4.716;2023-12-07T09:55:37;6.70;99.90
35240;DHT22;21376;50.954;4.716;2023-12-07T09:58:04;6.80;99.90
35240;DHT22;21376;50.954;4.716;2023-12-07T10:00:33;6.80;99.90
35240;DHT22;21376;50.954;4.716;2023-12-07T10:03:03;7.30;99.90
35240;DHT22;21376;50.954;4.716;2023-12-07T10:05:56;7.90;99.90
35240;DHT22;21376;50.954;4.716;2023-12-07T10:08:40;8.20;99.90
35240;DHT22;21376;50.954;4.716;2023-12-07T10:11:15;9.00;99.90
35240;DHT22;21376;50.954;4.716;2023-12-07T10:13:43;8.50;99.90
35240;DHT22;21376;50.954;4.716;2023-12-07T10:16:16;7.80;99.90
35240;DHT22;21376;50.954;4.716;2023-12-07T10:18:43;7.30;99.90
35240;DHT22;21376;50.954;4.716;2023-12-07T10:21:09;7.80;99.90
35240;DHT22;21376;50.954;4.716;2023-12-07T10:23:43;8.80;99.90
35240;DHT22;21376;50.954;4.716;2023-12-07T10:26:15;9.30;99.90
35240;DHT22;21376;50.954;4.716;2023-12-07T10:28:44;10.50;99.90
35240;DHT22;21376;50.954;4.716;2023-12-07T10:31:18;10.70;99.90
35240;DHT22;21376;50.954;4.716;2023-12-07T10:34:00;11.60;99.90
35240;DHT22;21376;50.954;4.716;2023-12-07T10:36:29;11.10;99.90
35240;DHT22;21376;50.954;4.716;2023-12-07T10:38:58;10.40;99.90
35240;DHT22;21376;50.954;4.716;2023-12-07T10:41:24;9.90;99.90
35240;DHT22;21376;50.954;4.716;2023-12-07T10:43:59;10.30;99.90
35240;DHT22;21376;50.954;4.716;2023-12-07T10:46:27;9.80;99.90
35240;DHT22;21376;50.954;4.716;2023-12-07T10:49:01;10.60;99.90
35240;DHT22;21376;50.954;4.716;2023-12-07T10:51:38;10.50;99.90
35240;DHT22;21376;50.954;4.716;2023-12-07T10:54:08;11.30;99.90
35240;DHT22;21376;50.954;4.716;2023-12-07T10:56:44;10.10;99.90
35240;DHT22;21376;50.954;4.716;2023-12-07T10:59:11;10.40;99.90
35240;DHT22;21376;50.954;4.716;2023-12-07T11:01:42;10.40;99.90
35240;DHT22;21376;50.954;4.716;2023-12-07T11:04:13;10.40;99.90
35240;DHT22;21376;50.954;4.716;2023-12-07T11:06:40;10.10;99.90
35240;DHT22;21376;50.954;4.716;2023-12-07T11:09:17;9.50;99.90
35240;DHT22;21376;50.954;4.716;2023-12-07T11:11:51;9.00;99.90
35240;DHT22;21376;50.954;4.716;2023-12-07T11:14:19;8.40;99.90
35240;DHT22;21376;50.954;4.716;2023-12-07T11:16:48;8.70;99.90
35240;DHT22;21376;50.954;4.716;2023-12-07T11:22:07;8.80;99.90
35240;DHT22;21376;50.954;4.716;2023-12-07T11:24:35;9.00;99.90
35240;DHT22;21376;50.954;4.716;2023-12-07T11:27:03;8.80;99.90
35240;DHT22;21376;50.954;4.716;2023-12-07T11:29:29;9.00;99.90
35240;DHT22;21376;50.954;4.716;2023-12-07T11:32:02;8.90;99.90
35240;DHT22;21376;50.954;4.716;2023-12-07T11:34:52;8.90;99.90
35240;DHT22;21376;50.954;4.716;2023-12-07T11:37:19;9.00;99.90
35240;DHT22;21376;50.954;4.716;2023-12-07T11:40:09;9.30;99.90
35240;DHT22;21376;50.954;4.716;2023-12-07T11:42:36;8.60;99.90
35240;DHT22;21376;50.954;4.716;2023-12-07T11:48:30;8.90;99.90
35240;DHT22;21376;50.954;4.716;2023-12-07T11:51:00;8.70;99.90
35240;DHT22;21376;50.954;4.716;2023-12-07T11:53:37;8.50;99.90
35240;DHT22;21376;50.954;4.716;2023-12-07T11:56:11;8.10;99.90
35240;DHT22;21376;50.954;4.716;2023-12-07T11:58:48;7.90;99.90
35240;DHT22;21376;50.954;4.716;2023-12-07T12:01:24;8.10;99.90
35240;DHT22;21376;50.954;4.716;2023-12-07T12:03:53;8.10;99.90
35240;DHT22;21376;50.954;4.716;2023-12-07T12:06:20;7.90;99.90
35240;DHT22;21376;50.954;4.716;2023-12-07T12:08:52;7.70;99.90
35240;DHT22;21376;50.954;4.716;2023-12-07T12:11:18;7.50;99.90
35240;DHT22;21376;50.954;4.716;2023-12-07T12:13:45;7.60;99.90
35240;DHT22;21376;50.954;4.716;2023-12-07T12:16:14;7.70;99.90
35240;DHT22;21376;50.954;4.716;2023-12-07T12:18:40;7.60;99.90
35240;DHT22;21376;50.954;4.716;2023-12-07T12:21:07;7.30;99.90
35240;DHT22;21376;50.954;4.716;2023-12-07T12:23:34;7.70;99.90
35240;DHT22;21376;50.954;4.716;2023-12-07T12:26:01;7.50;99.90
35240;DHT22;21376;50.954;4.716;2023-12-07T12:28:30;7.50;99.90
35240;DHT22;21376;50.954;4.716;2023-12-07T12:30:58;7.40;99.90
35240;DHT22;21376;50.954;4.716;2023-12-07T12:33:24;7.40;99.90
35240;DHT22;21376;50.954;4.716;2023-12-07T12:36:07;7.50;99.90
35240;DHT22;21376;50.954;4.716;2023-12-07T12:38:37;7.40;99.90
35240;DHT22;21376;50.954;4.716;2023-12-07T12:41:03;7.50;99.90
35240;DHT22;21376;50.954;4.716;2023-12-07T12:43:33;7.30;99.90
35240;DHT22;21376;50.954;4.716;2023-12-07T12:46:02;7.10;99.90
35240;DHT22;21376;50.954;4.716;2023-12-07T12:49:00;7.00;99.90
35240;DHT22;21376;50.954;4.716;2023-12-07T12:51:32;6.60;99.90
35240;DHT22;21376;50.954;4.716;2023-12-07T12:54:02;6.50;99.90
35240;DHT22;21376;50.954;4.716;2023-12-07T12:56:30;6.50;99.90
35240;DHT22;21376;50.954;4.716;2023-12-07T12:58:57;6.50;99.90
35240;DHT22;21376;50.954;4.716;2023-12-07T13:01:26;6.60;99.90
35240;DHT22;21376;50.954;4.716;2023-12-07T13:04:25;6.70;99.90
35240;DHT22;21376;50.954;4.716;2023-12-07T13:06:54;6.70;99.90
35240;DHT22;21376;50.954;4.716;2023-12-07T13:09:27;6.80;99.90
35240;DHT22;21376;50.954;4.716;2023-12-07T13:12:03;6.70;99.90
35240;DHT22;21376;50.954;4.716;2023-12-07T13:14:30;6.60;99.90
35240;DHT22;21376;50.954;4.716;2023-12-07T13:16:59;6.50;99.90
35240;DHT22;21376;50.954;4.716;2023-12-07T13:19:28;6.50;99.90
35240;DHT22;21376;50.954;4.716;2023-12-07T13:21:54;6.60;99.90
35240;DHT22;21376;50.954;4.716;2023-12-07T13:24:21;6.50;99.90
35240;DHT22;21376;50.954;4.716;2023-12-07T13:26:50;6.60;99.90
35240;DHT22;21376;50.954;4.716;2023-12-07T13:29:19;6.70;99.90
35240;DHT22;21376;50.954;4.716;2023-12-07T13:31:48;6.60;99.90
35240;DHT22;21376;50.954;4.716;2023-12-07T13:34:16;6.60;99.90
35240;DHT22;21376;50.954;4.716;2023-12-07T13:36:45;6.60;99.90
35240;DHT22;21376;50.954;4.716;2023-12-07T13:39:14;6.60;99.90
35240;DHT22;21376;50.954;4.716;2023-12-07T13:41:40;6.60;99.90
35240;DHT22;21376;50.954;4.716;2023-12-07T13:47:17;7.10;99.90
35240;DHT22;21376;50.954;4.716;2023-12-07T13:49:43;7.10;99.90
35240;DHT22;21376;50.954;4.716;2023-12-07T13:52:14;7.10;99.90
35240;DHT22;21376;50.954;4.716;2023-12-07T13:54:45;7.20;99.90
35240;DHT22;21376;50.954;4.716;2023-12-07T13:57:12;6.80;99.90
35240;DHT22;21376;50.954;4.716;2023-12-07T14:00:12;6.80;99.90
35240;DHT22;21376;50.954;4.716;2023-12-07T14:02:40;6.90;99.90
35240;DHT22;21376;50.954;4.716;2023-12-07T14:05:07;6.90;99.90
35240;DHT22;21376;50.954;4.716;2023-12-07T14:07:34;7.00;99.90
35240;DHT22;21376;50.954;4.716;2023-12-07T14:10:00;7.00;99.90
35240;DHT22;21376;50.954;4.716;2023-12-07T14:12:26;7.00;99.90
35240;DHT22;21376;50.954;4.716;2023-12-07T14:14:57;6.70;99.90
35240;DHT22;21376;50.954;4.716;2023-12-07T14:17:24;6.50;99.90
35240;DHT22;21376;50.954;4.716;2023-12-07T14:19:50;6.30;99.90
35240;DHT22;21376;50.954;4.716;2023-12-07T14:22:17;6.20;99.90
35240;DHT22;21376;50.954;4.716;2023-12-07T14:24:45;6.20;99.90
35240;DHT22;21376;50.954;4.716;2023-12-07T14:27:13;6.20;99.90
35240;DHT22;21376;50.954;4.716;2023-12-07T14:29:41;5.90;99.90
35240;DHT22;21376;50.954;4.716;2023-12-07T14:32:07;6.10;99.90
35240;DHT22;21376;50.954;4.716;2023-12-07T14:34:35;6.10;99.90
35240;DHT22;21376;50.954;4.716;2023-12-07T14:37:03;6.00;99.90
35240;DHT22;21376;50.954;4.716;2023-12-07T14:46:01;5.80;99.90
35240;DHT22;21376;50.954;4.716;2023-12-07T14:48:28;5.90;99.90
35240;DHT22;21376;50.954;4.716;2023-12-07T14:50:55;5.70;99.90
35240;DHT22;21376;50.954;4.716;2023-12-07T14:53:23;5.60;99.90
35240;DHT22;21376;50.954;4.716;2023-12-07T14:55:51;5.70;99.90
35240;DHT22;21376;50.954;4.716;2023-12-07T14:58:17;5.80;99.90
35240;DHT22;21376;50.954;4.716;2023-12-07T15:00:59;5.80;99.90
35240;DHT22;21376;50.954;4.716;2023-12-07T15:03:38;5.50;99.90
35240;DHT22;21376;50.954;4.716;2023-12-07T15:06:31;5.30;99.90
35240;DHT22;21376;50.954;4.716;2023-12-07T15:09:04;5.30;99.90
35240;DHT22;21376;50.954;4.716;2023-12-07T15:11:35;5.30;99.90
35240;DHT22;21376;50.954;4.716;2023-12-07T15:14:04;5.20;99.90
35240;DHT22;21376;50.954;4.716;2023-12-07T15:16:36;5.00;99.90
35240;DHT22;21376;50.954;4.716;2023-12-07T15:19:02;5.10;99.90
35240;DHT22;21376;50.954;4.716;2023-12-07T15:21:29;5.00;99.90
35240;DHT22;21376;50.954;4.716;2023-12-07T15:23:58;5.10;99.90
35240;DHT22;21376;50.954;4.716;2023-12-07T15:26:45;5.00;99.90
35240;DHT22;21376;50.954;4.716;2023-12-07T15:29:13;5.10;99.90
35240;DHT22;21376;50.954;4.716;2023-12-07T15:32:05;5.00;99.90
35240;DHT22;21376;50.954;4.716;2023-12-07T15:34:35;5.00;99.90
35240;DHT22;21376;50.954;4.716;2023-12-07T15:37:04;5.00;99.90
35240;DHT22;21376;50.954;4.716;2023-12-07T15:39:34;5.00;99.90
35240;DHT22;21376;50.954;4.716;2023-12-07T15:42:10;5.00;99.90
35240;DHT22;21376;50.954;4.716;2023-12-07T15:44:36;5.00;99.90
35240;DHT22;21376;50.954;4.716;2023-12-07T15:47:03;5.10;99.90
35240;DHT22;21376;50.954;4.716;2023-12-07T15:49:31;5.20;99.90
35240;DHT22;21376;50.954;4.716;2023-12-07T15:52:03;5.20;99.90
35240;DHT22;21376;50.954;4.716;2023-12-07T15:54:33;5.10;99.90
35240;DHT22;21376;50.954;4.716;2023-12-07T15:57:03;5.00;99.90
35240;DHT22;21376;50.954;4.716;2023-12-07T15:59:30;4.90;99.90
35240;DHT22;21376;50.954;4.716;2023-12-07T16:01:59;4.80;99.90
35240;DHT22;21376;50.954;4.716;2023-12-07T16:04:28;4.80;99.90
35240;DHT22;21376;50.954;4.716;2023-12-07T16:06:58;5.00;99.90
35240;DHT22;21376;50.954;4.716;2023-12-07T16:09:27;4.90;99.90
35240;DHT22;21376;50.954;4.716;2023-12-07T16:11:56;4.80;99.90
35240;DHT22;21376;50.954;4.716;2023-12-07T16:14:32;4.80;99.90
35240;DHT22;21376;50.954;4.716;2023-12-07T16:16:58;4.60;99.90
35240;DHT22;21376;50.954;4.716;2023-12-07T16:19:40;4.70;99.90
35240;DHT22;21376;50.954;4.716;2023-12-07T16:22:09;4.60;99.90
35240;DHT22;21376;50.954;4.716;2023-12-07T16:24:38;4.50;99.90
35240;DHT22;21376;50.954;4.716;2023-12-07T16:27:12;4.60;99.90
35240;DHT22;21376;50.954;4.716;2023-12-07T16:29:43;4.50;99.90
35240;DHT22;21376;50.954;4.716;2023-12-07T16:32:12;4.40;99.90
35240;DHT22;21376;50.954;4.716;2023-12-07T16:34:41;4.40;99.90
35240;DHT22;21376;50.954;4.716;2023-12-07T16:37:10;4.40;99.90
35240;DHT22;21376;50.954;4.716;2023-12-07T16:39:41;4.40;99.90